Date,TemperatureHighF,TemperatureAvgF,TemperatureLowF,DewpointHighF,DewpointAvgF,DewpointLowF,HumidityHigh,HumidityAvg,HumidityLow,PressureMaxIn,PressureMinIn,WindSpeedMaxMPH,WindSpeedAvgMPH,GustSpeedMaxMPH,PrecipitationSumIn
2013-1-1,80,74,71,62,59,55,71,59,48,30.15,29.98,0,0,0,0.00
2013-1-2,81,74,68,68,64,60,82,73,58,30.03,29.95,0,0,0,0.00
2013-1-3,84,76,71,70,67,66,83,74,58,30.07,29.98,0,0,0,0.00
2013-1-4,83,76,71,72,68,65,85,79,66,30.15,30.03,0,0,0,0.00
2013-1-5,77,74,72,70,68,66,89,83,75,30.18,30.09,0,0,0,0.00
2013-1-6,84,76,71,72,70,66,90,80,65,30.12,30.01,0,0,0,0.00
2013-1-7,76,73,72,70,68,65,90,84,71,30.09,30.01,0,0,0,0.00
2013-1-8,84,77,73,73,71,69,90,83,68,30.15,30.01,0,0,0,0.00
2013-1-9,81,77,75,71,70,67,86,79,72,30.21,30.09,0,0,0,0.00
2013-1-10,82,77,74,69,66,61,80,69,52,30.24,30.12,0,0,0,0.00
2013-1-11,80,76,74,70,67,65,82,73,65,30.18,30.09,0,0,0,0.00
2013-1-12,80,76,74,69,66,62,80,72,64,30.12,30.03,0,0,0,0.00
2013-1-13,81,76,73,67,64,59,77,67,55,30.09,30.03,0,0,0,0.00
2013-1-14,83,76,73,65,62,60,73,62,48,30.18,30.07,0,0,0,0.00
2013-1-15,78,75,74,68,65,61,78,70,64,30.15,30.07,0,0,0,0.00
2013-1-16,83,76,72,70,67,61,85,73,60,30.15,30.01,0,0,0,0.00
2013-1-17,79,73,68,72,66,54,90,80,61,30.21,30.01,0,0,0,0.00
2013-1-18,72,68,62,59,51,45,66,55,46,30.45,30.21,0,0,0,0.00
2013-1-19,72,70,68,67,63,54,90,79,57,30.36,30.15,0,0,0,0.00
2013-1-20,81,73,68,70,66,64,90,80,60,30.33,30.07,0,0,0,0.00
2013-1-21,79,74,71,70,68,64,89,82,72,30.24,30.07,0,0,0,0.00
2013-1-22,76,72,68,65,58,51,82,64,49,30.45,30.18,0,0,0,0.00
2013-1-23,75,71,68,56,51,48,63,50,44,31.01,30.36,0,0,0,0.00
2013-1-24,79,71,66,55,52,49,67,53,42,31.01,31.01,0,0,0,0.00
2013-1-25,78,71,66,58,53,48,68,54,43,17.72,17.72,0,0,0,0.00
2013-1-26,80,72,66,61,57,51,72,61,44,17.72,17.72,0,0,0,0.00
2013-1-27,79,74,70,63,60,56,73,63,51,31.01,17.72,0,0,0,0.00
2013-1-28,81,76,72,66,63,60,75,64,51,31.01,31.01,0,0,0,0.00
2013-1-29,80,76,73,69,66,62,80,72,65,31.01,31.01,0,0,0,0.00
2013-1-30,82,76,72,68,65,62,81,70,56,31.01,31.01,0,0,0,0.00
2013-1-31,75,72,67,71,59,42,90,67,40,31.01,31.01,0,0,0,0.00
2013-2-1,76,69,62,52,47,39,50,44,40,31.01,31.01,0,0,0,0.00
2013-2-2,75,70,65,53,48,38,59,46,38,31.01,31.01,0,0,0,0.00
2013-2-3,78,70,64,54,49,42,70,49,35,31.01,31.01,0,0,0,0.00
2013-2-4,77,68,61,52,46,38,57,46,33,31.01,30.98,0,0,0,0.00
2013-2-5,79,71,63,62,57,50,75,62,46,31.01,30.92,0,0,0,0.00
2013-2-6,81,73,67,66,62,59,81,69,56,31.01,30.95,0,0,0,0.00
2013-2-7,83,76,72,65,63,61,75,66,52,31.01,30.80,0,0,0,0.00
2013-2-8,84,77,71,70,68,64,89,75,57,31.01,31.01,0,0,0,0.00
2013-2-9,80,74,70,66,62,57,80,66,59,31.01,31.01,0,0,0,0.00
2013-2-10,74,73,72,64,60,55,76,66,56,31.01,31.01,0,0,0,0.00
2013-2-11,80,74,71,64,62,60,72,66,57,31.01,30.98,0,0,0,0.00
2013-2-12,84,76,71,69,67,64,84,73,54,31.01,31.01,0,0,0,0.00
2013-2-13,82,76,73,72,70,68,90,82,72,31.01,31.01,0,0,0,0.00
2013-2-14,81,75,69,74,68,63,89,81,68,31.01,31.01,0,0,0,0.00
2013-2-15,73,70,69,67,66,64,89,86,81,31.01,31.01,0,0,0,0.00
2013-2-16,77,70,64,65,56,43,88,64,39,31.01,31.01,0,0,0,0.00
2013-2-17,67,62,56,43,29,-12,48,31,4,31.01,31.01,0,0,0,0.00
2013-2-18,69,63,56,54,43,34,62,47,42,31.01,31.01,0,0,0,0.00
2013-2-19,78,72,67,66,60,52,82,66,52,31.01,23.30,0,0,0,0.00
2013-2-20,82,74,69,67,64,57,85,72,44,18.10,17.72,0,0,0,0.00
2013-2-21,83,76,72,67,65,62,81,70,54,17.72,17.72,0,0,0,0.00
2013-2-22,84,77,73,71,69,66,87,78,66,17.72,17.72,0,0,0,0.00
2013-2-23,83,77,74,72,70,68,87,79,66,17.72,17.72,0,0,0,0.00
2013-2-24,86,78,73,74,72,69,91,83,62,17.72,17.72,0,0,0,0.00
2013-2-25,84,77,72,74,71,67,90,82,70,17.72,17.72,0,0,0,0.00
2013-2-26,76,75,75,72,71,71,88,87,85,17.72,17.72,0,0,0,0.00